Sovereign — 9HUE9 — position and weather

sailwx.info

Track history (hours):
 
Tides and Currents Weather Stations Pressure Air Temp Water Temp Dewpoint Dewpoint Depression Visibility Wind Speed Wind Dir Waves Ship Positions

Sovereign

Last reported at 2017-Nov-05 12:53 UTC. Time now 2017-Nov-21 08:18 UTC.
Position N 37°11' W 001°05'.
Warning: this ship's position is 15 days out of date.

Length 269 m; draft 7.8 m.

Type: Passenger vessel. MMSI: 249539000.

Date/timePositionNaut miles runAvg speedWind from/ knotsBaromVisibWave heightAir tempDewpointWater temp
2017-Nov-05 12:53N 37°11' W 001°05'714.2
2017-Nov-05 12:25N 37°16' W 000°58'614.2
2017-Nov-05 12:00N 37°20' W 000°53'714.0
2017-Nov-05 11:30N 37°25' W 000°47'713.8
2017-Nov-05 11:00N 37°29' W 000°40'713.6
2017-Nov-05 10:30N 37°34' W 000°34'713.4
2017-Nov-05 10:01N 37°39' W 000°29'713.3
2017-Nov-05 09:30N 37°45' W 000°24'713.4
2017-Nov-05 09:00N 37°50' W 000°20'813.4
2017-Nov-05 08:25N 37°57' W 000°15'513.2
2017-Nov-05 08:00N 38°02' W 000°11'19214.0
2017-Nov-04 18:20N 40°49' E 001°51'513.8
2017-Nov-04 18:00N 40°53' E 001°54'713.6
2017-Nov-04 17:30N 40°59' E 001°58'714.0
2017-Nov-04 17:00N 41°05' E 002°03'714.1
2017-Nov-04 16:30N 41°11' E 002°07'713.0
2017-Nov-04 15:59N 41°17' E 002°11'1 0.1
2017-Nov-04 05:31N 41°19' E 002°10'0 8.5
2017-Nov-04 05:30N 41°18' E 002°10'12215.3
2017-Nov-03 21:34N 42°17' E 004°34'116.5
2017-Nov-03 21:29N 42°18' E 004°35'816.4
2017-Nov-03 21:00N 42°22' E 004°44'816.5
2017-Nov-03 20:30N 42°27' E 004°53'916.3
2017-Nov-03 19:58N 42°32' E 005°03'716.4
2017-Nov-03 19:31N 42°36' E 005°11'1016.6
2017-Nov-03 18:56N 42°42' E 005°22'716.7
2017-Nov-03 18:29N 42°46' E 005°30'816.6
2017-Nov-03 18:00N 42°51' E 005°39'916.5
2017-Nov-03 17:27N 42°56' E 005°49'1111.8
2017-Nov-03 16:33N 43°05' E 005°58'111.5
2017-Nov-03 16:30N 43°05' E 005°57'3 4.6
2017-Nov-03 15:56N 43°06' E 005°54'0 0.0
2017-Nov-03 15:26N 43°06' E 005°54'0 0.0
2017-Nov-03 14:50N 43°06' E 005°54'0 0.0
2017-Nov-03 14:26N 43°06' E 005°54'0 0.0
2017-Nov-03 13:56N 43°06' E 005°54'0 0.0
2017-Nov-03 13:26N 43°06' E 005°54'0 0.0
2017-Nov-03 12:56N 43°06' E 005°54'0 0.0
2017-Nov-03 12:26N 43°06' E 005°54'0 0.0
2017-Nov-03 11:56N 43°06' E 005°54'0 0.0
2017-Nov-03 11:26N 43°06' E 005°54'0 0.0
2017-Nov-03 10:56N 43°06' E 005°54'0 0.0
2017-Nov-03 10:26N 43°06' E 005°54'0 0.0
2017-Nov-03 09:56N 43°06' E 005°54'0 0.0
2017-Nov-03 09:26N 43°06' E 005°54'0 0.0
2017-Nov-03 08:56N 43°06' E 005°54'0 0.0
2017-Nov-03 08:26N 43°06' E 005°54'0 0.0
2017-Nov-03 07:56N 43°06' E 005°54'0 0.0
2017-Nov-03 07:26N 43°06' E 005°54'0 0.0
2017-Nov-03 06:56N 43°06' E 005°54'0 0.0
2017-Nov-03 06:30N 43°06' E 005°54'1 1.8
2017-Nov-03 06:00N 43°06' E 005°55'3 6.5
2017-Nov-03 05:30N 43°05' E 005°59'43 5.4
2017-Nov-02 21:31N 43°05' E 006°58'0 8.2
2017-Nov-02 21:30N 43°05' E 006°58'4 7.8
2017-Nov-02 21:00N 43°08' E 007°02'4 7.6
2017-Nov-02 20:30N 43°10' E 007°05'4 7.6
2017-Nov-02 20:00N 43°13' E 007°09'4 7.6
2017-Nov-02 19:28N 43°16' E 007°12'3 7.6
2017-Nov-02 19:00N 43°19' E 007°15'4 7.6
2017-Nov-02 18:30N 43°23' E 007°17'4 7.8
2017-Nov-02 18:00N 43°27' E 007°17'4 7.8
2017-Nov-02 17:30N 43°31' E 007°18'4 7.7
2017-Nov-02 17:00N 43°34' E 007°18'4 7.5
2017-Nov-02 16:29N 43°38' E 007°18'3 0.3
2017-Nov-02 06:21N 43°41' E 007°19'3 7.1
2017-Nov-02 06:00N 43°39' E 007°21'510.2
2017-Nov-02 05:30N 43°39' E 007°28'510.4
2017-Nov-02 05:00N 43°39' E 007°36'3711.7
2017-Nov-02 01:51N 43°36' E 008°26'412.1
2017-Nov-02 01:30N 43°36' E 008°32'612.1
2017-Nov-02 01:00N 43°36' E 008°40'611.9
2017-Nov-02 00:30N 43°35' E 008°48'611.8
2017-Nov-02 00:00N 43°35' E 008°57'612.0
2017-Nov-01 23:30N 43°35' E 009°05'612.0
2017-Nov-01 23:00N 43°34' E 009°13'611.7
2017-Nov-01 22:30N 43°34' E 009°21'611.3
2017-Nov-01 22:00N 43°34' E 009°29'611.8
2017-Nov-01 21:30N 43°33' E 009°37'611.9
2017-Nov-01 21:00N 43°33' E 009°45'612.1
2017-Nov-01 20:30N 43°32' E 009°54'612.2
2017-Nov-01 20:00N 43°31' E 010°02'611.6
2017-Nov-01 19:30N 43°31' E 010°10'510.8
2017-Nov-01 19:00N 43°32' E 010°17'1 2.7
2017-Nov-01 18:30N 43°33' E 010°18'55 3.2
2017-Nov-01 01:12N 42°39' E 010°09'712.1
2017-Nov-01 00:35N 42°33' E 010°15'112.3
2017-Nov-01 00:29N 42°32' E 010°16'812.5
2017-Oct-31 23:49N 42°26' E 010°24'196 6.9
2017-Oct-30 19:27N 40°38' E 014°01'716.0
2017-Oct-30 19:00N 40°43' E 014°09'815.4
2017-Oct-30 18:30N 40°48' E 014°16'3 0.6
2017-Oct-30 14:39N 40°50' E 014°15'0 0.0
2017-Oct-30 07:44N 40°50' E 014°15'0 1.1
2017-Oct-30 07:28N 40°50' E 014°16'2 3.2
2017-Oct-30 07:00N 40°49' E 014°17'54814.3
2017-Oct-28 16:44N 41°16' E 002°11'3 0.3
2017-Oct-28 07:14N 41°19' E 002°10'14515.2
2017-Oct-27 21:39N 43°08' E 004°20'215.8
2017-Oct-27 21:30N 43°09' E 004°23'815.4
2017-Oct-27 21:00N 43°10' E 004°33'815.0
2017-Oct-27 20:30N 43°11' E 004°44'714.1
2017-Oct-27 20:01N 43°09' E 004°53'713.5
2017-Oct-27 19:31N 43°07' E 005°02'713.2
2017-Oct-27 19:00N 43°05' E 005°11'713.6
2017-Oct-27 18:31N 43°03' E 005°19'713.1
2017-Oct-27 18:00N 43°02' E 005°28'2211.1
2017-Oct-27 16:03N 43°05' E 005°58'012.7
2017-Oct-27 16:01N 43°05' E 005°57'3 5.1
2017-Oct-27 15:31N 43°06' E 005°54'0 0.0
2017-Oct-27 15:00N 43°06' E 005°54'0 0.0
2017-Oct-27 14:24N 43°06' E 005°54'0 0.0
2017-Oct-27 13:42N 43°06' E 005°54'0 0.0
2017-Oct-27 13:30N 43°06' E 005°54'0 0.0
2017-Oct-27 13:00N 43°06' E 005°54'0 0.0
2017-Oct-27 12:27N 43°06' E 005°54'0 0.0
2017-Oct-27 11:54N 43°06' E 005°54'0 0.0
2017-Oct-27 11:30N 43°06' E 005°54'0 0.0
2017-Oct-27 10:57N 43°06' E 005°54'0 0.0
2017-Oct-27 10:30N 43°06' E 005°54'0 0.0
2017-Oct-27 10:00N 43°06' E 005°54'0 0.0
2017-Oct-27 09:30N 43°06' E 005°54'0 0.0
2017-Oct-27 08:54N 43°06' E 005°54'0 0.0
2017-Oct-27 08:30N 43°06' E 005°54'0 0.0
2017-Oct-27 07:57N 43°06' E 005°54'0 0.0
2017-Oct-27 07:30N 43°06' E 005°54'0 0.0
2017-Oct-27 07:00N 43°06' E 005°54'0 0.0
2017-Oct-27 06:30N 43°06' E 005°54'0 0.0
2017-Oct-27 05:57N 43°06' E 005°54'0 0.1
2017-Oct-27 05:31N 43°06' E 005°54'1 1.7
2017-Oct-27 05:01N 43°06' E 005°55'32 7.7
2017-Oct-27 00:48N 42°44' E 006°28'31 7.5
2017-Oct-26 20:39N 43°05' E 006°59'1 7.2
2017-Oct-26 20:30N 43°06' E 006°60'4 7.4
2017-Oct-26 20:00N 43°09' E 007°03'4 7.5
2017-Oct-26 19:30N 43°12' E 007°07'4 7.6
2017-Oct-26 19:00N 43°15' E 007°10'4 7.3
2017-Oct-26 18:30N 43°17' E 007°13'3 7.0
2017-Oct-26 18:00N 43°20' E 007°16'3 7.0
2017-Oct-26 17:30N 43°24' E 007°17'4 7.2
2017-Oct-26 17:00N 43°27' E 007°17'4 7.3
2017-Oct-26 16:29N 43°31' E 007°18'4 7.3
2017-Oct-26 16:00N 43°35' E 007°18'4 7.4
2017-Oct-26 15:30N 43°38' E 007°18'3 2.0
2017-Oct-26 13:55N 43°41' E 007°19'0 0.0
2017-Oct-26 13:28N 43°41' E 007°19'0 0.0
2017-Oct-26 12:55N 43°41' E 007°19'  
Track history (hours):
 
Tides and Currents Weather Stations Pressure Air Temp Water Temp Dewpoint Dewpoint Depression Visibility Wind Speed Wind Dir Waves Ship Positions

Sovereign

Last reported at 2017-Nov-05 12:53 UTC. Time now 2017-Nov-21 08:18 UTC.
Position N 37°11' W 001°05'.
Warning: this ship's position is 15 days out of date.

Length 269 m; draft 7.8 m.

Type: Passenger vessel. MMSI: 249539000.

Date/timePositionNaut miles runAvg speedWind from/ knotsBaromVisibWave heightAir tempDewpointWater temp
2017-Nov-05 12:53N 37°11' W 001°05'714.2
2017-Nov-05 12:25N 37°16' W 000°58'614.2
2017-Nov-05 12:00N 37°20' W 000°53'714.0
2017-Nov-05 11:30N 37°25' W 000°47'713.8
2017-Nov-05 11:00N 37°29' W 000°40'713.6
2017-Nov-05 10:30N 37°34' W 000°34'713.4
2017-Nov-05 10:01N 37°39' W 000°29'713.3
2017-Nov-05 09:30N 37°45' W 000°24'713.4
2017-Nov-05 09:00N 37°50' W 000°20'813.4
2017-Nov-05 08:25N 37°57' W 000°15'513.2
2017-Nov-05 08:00N 38°02' W 000°11'19214.0
2017-Nov-04 18:20N 40°49' E 001°51'513.8
2017-Nov-04 18:00N 40°53' E 001°54'713.6
2017-Nov-04 17:30N 40°59' E 001°58'714.0
2017-Nov-04 17:00N 41°05' E 002°03'714.1
2017-Nov-04 16:30N 41°11' E 002°07'713.0
2017-Nov-04 15:59N 41°17' E 002°11'1 0.1
2017-Nov-04 05:31N 41°19' E 002°10'0 8.5
2017-Nov-04 05:30N 41°18' E 002°10'12215.3
2017-Nov-03 21:34N 42°17' E 004°34'116.5
2017-Nov-03 21:29N 42°18' E 004°35'816.4
2017-Nov-03 21:00N 42°22' E 004°44'816.5
2017-Nov-03 20:30N 42°27' E 004°53'916.3
2017-Nov-03 19:58N 42°32' E 005°03'716.4
2017-Nov-03 19:31N 42°36' E 005°11'1016.6
2017-Nov-03 18:56N 42°42' E 005°22'716.7
2017-Nov-03 18:29N 42°46' E 005°30'816.6
2017-Nov-03 18:00N 42°51' E 005°39'916.5
2017-Nov-03 17:27N 42°56' E 005°49'1111.8
2017-Nov-03 16:33N 43°05' E 005°58'111.5
2017-Nov-03 16:30N 43°05' E 005°57'3 4.6
2017-Nov-03 15:56N 43°06' E 005°54'0 0.0
2017-Nov-03 15:26N 43°06' E 005°54'0 0.0
2017-Nov-03 14:50N 43°06' E 005°54'0 0.0
2017-Nov-03 14:26N 43°06' E 005°54'0 0.0
2017-Nov-03 13:56N 43°06' E 005°54'0 0.0
2017-Nov-03 13:26N 43°06' E 005°54'0 0.0
2017-Nov-03 12:56N 43°06' E 005°54'0 0.0
2017-Nov-03 12:26N 43°06' E 005°54'0 0.0
2017-Nov-03 11:56N 43°06' E 005°54'0 0.0
2017-Nov-03 11:26N 43°06' E 005°54'0 0.0
2017-Nov-03 10:56N 43°06' E 005°54'0 0.0
2017-Nov-03 10:26N 43°06' E 005°54'0 0.0
2017-Nov-03 09:56N 43°06' E 005°54'0 0.0
2017-Nov-03 09:26N 43°06' E 005°54'0 0.0
2017-Nov-03 08:56N 43°06' E 005°54'0 0.0
2017-Nov-03 08:26N 43°06' E 005°54'0 0.0
2017-Nov-03 07:56N 43°06' E 005°54'0 0.0
2017-Nov-03 07:26N 43°06' E 005°54'0 0.0
2017-Nov-03 06:56N 43°06' E 005°54'0 0.0
2017-Nov-03 06:30N 43°06' E 005°54'1 1.8
2017-Nov-03 06:00N 43°06' E 005°55'3 6.5
2017-Nov-03 05:30N 43°05' E 005°59'43 5.4
2017-Nov-02 21:31N 43°05' E 006°58'0 8.2
2017-Nov-02 21:30N 43°05' E 006°58'4 7.8
2017-Nov-02 21:00N 43°08' E 007°02'4 7.6
2017-Nov-02 20:30N 43°10' E 007°05'4 7.6
2017-Nov-02 20:00N 43°13' E 007°09'4 7.6
2017-Nov-02 19:28N 43°16' E 007°12'3 7.6
2017-Nov-02 19:00N 43°19' E 007°15'4 7.6
2017-Nov-02 18:30N 43°23' E 007°17'4 7.8
2017-Nov-02 18:00N 43°27' E 007°17'4 7.8
2017-Nov-02 17:30N 43°31' E 007°18'4 7.7
2017-Nov-02 17:00N 43°34' E 007°18'4 7.5
2017-Nov-02 16:29N 43°38' E 007°18'3 0.3
2017-Nov-02 06:21N 43°41' E 007°19'3 7.1
2017-Nov-02 06:00N 43°39' E 007°21'510.2
2017-Nov-02 05:30N 43°39' E 007°28'510.4
2017-Nov-02 05:00N 43°39' E 007°36'3711.7
2017-Nov-02 01:51N 43°36' E 008°26'412.1
2017-Nov-02 01:30N 43°36' E 008°32'612.1
2017-Nov-02 01:00N 43°36' E 008°40'611.9
2017-Nov-02 00:30N 43°35' E 008°48'611.8
2017-Nov-02 00:00N 43°35' E 008°57'612.0
2017-Nov-01 23:30N 43°35' E 009°05'612.0
2017-Nov-01 23:00N 43°34' E 009°13'611.7
2017-Nov-01 22:30N 43°34' E 009°21'611.3
2017-Nov-01 22:00N 43°34' E 009°29'611.8
2017-Nov-01 21:30N 43°33' E 009°37'611.9
2017-Nov-01 21:00N 43°33' E 009°45'612.1
2017-Nov-01 20:30N 43°32' E 009°54'612.2
2017-Nov-01 20:00N 43°31' E 010°02'611.6
2017-Nov-01 19:30N 43°31' E 010°10'510.8
2017-Nov-01 19:00N 43°32' E 010°17'1 2.7
2017-Nov-01 18:30N 43°33' E 010°18'55 3.2
2017-Nov-01 01:12N 42°39' E 010°09'712.1
2017-Nov-01 00:35N 42°33' E 010°15'112.3
2017-Nov-01 00:29N 42°32' E 010°16'812.5
2017-Oct-31 23:49N 42°26' E 010°24'196 6.9
2017-Oct-30 19:27N 40°38' E 014°01'716.0
2017-Oct-30 19:00N 40°43' E 014°09'815.4
2017-Oct-30 18:30N 40°48' E 014°16'3 0.6
2017-Oct-30 14:39N 40°50' E 014°15'0 0.0
2017-Oct-30 07:44N 40°50' E 014°15'0 1.1
2017-Oct-30 07:28N 40°50' E 014°16'2 3.2
2017-Oct-30 07:00N 40°49' E 014°17'54814.3
2017-Oct-28 16:44N 41°16' E 002°11'3 0.3
2017-Oct-28 07:14N 41°19' E 002°10'14515.2
2017-Oct-27 21:39N 43°08' E 004°20'215.8
2017-Oct-27 21:30N 43°09' E 004°23'815.4
2017-Oct-27 21:00N 43°10' E 004°33'815.0
2017-Oct-27 20:30N 43°11' E 004°44'714.1
2017-Oct-27 20:01N 43°09' E 004°53'713.5
2017-Oct-27 19:31N 43°07' E 005°02'713.2
2017-Oct-27 19:00N 43°05' E 005°11'713.6
2017-Oct-27 18:31N 43°03' E 005°19'713.1
2017-Oct-27 18:00N 43°02' E 005°28'2211.1
2017-Oct-27 16:03N 43°05' E 005°58'012.7
2017-Oct-27 16:01N 43°05' E 005°57'3 5.1
2017-Oct-27 15:31N 43°06' E 005°54'0 0.0
2017-Oct-27 15:00N 43°06' E 005°54'0 0.0
2017-Oct-27 14:24N 43°06' E 005°54'0 0.0
2017-Oct-27 13:42N 43°06' E 005°54'0 0.0
2017-Oct-27 13:30N 43°06' E 005°54'0 0.0
2017-Oct-27 13:00N 43°06' E 005°54'0 0.0
2017-Oct-27 12:27N 43°06' E 005°54'0 0.0
2017-Oct-27 11:54N 43°06' E 005°54'0 0.0
2017-Oct-27 11:30N 43°06' E 005°54'0 0.0
2017-Oct-27 10:57N 43°06' E 005°54'0 0.0
2017-Oct-27 10:30N 43°06' E 005°54'0 0.0
2017-Oct-27 10:00N 43°06' E 005°54'0 0.0
2017-Oct-27 09:30N 43°06' E 005°54'0 0.0
2017-Oct-27 08:54N 43°06' E 005°54'0 0.0
2017-Oct-27 08:30N 43°06' E 005°54'0 0.0
2017-Oct-27 07:57N 43°06' E 005°54'0 0.0
2017-Oct-27 07:30N 43°06' E 005°54'0 0.0
2017-Oct-27 07:00N 43°06' E 005°54'0 0.0
2017-Oct-27 06:30N 43°06' E 005°54'0 0.0
2017-Oct-27 05:57N 43°06' E 005°54'0 0.1
2017-Oct-27 05:31N 43°06' E 005°54'1 1.7
2017-Oct-27 05:01N 43°06' E 005°55'32 7.7
2017-Oct-27 00:48N 42°44' E 006°28'31 7.5
2017-Oct-26 20:39N 43°05' E 006°59'1 7.2
2017-Oct-26 20:30N 43°06' E 006°60'4 7.4
2017-Oct-26 20:00N 43°09' E 007°03'4 7.5
2017-Oct-26 19:30N 43°12' E 007°07'4 7.6
2017-Oct-26 19:00N 43°15' E 007°10'4 7.3
2017-Oct-26 18:30N 43°17' E 007°13'3 7.0
2017-Oct-26 18:00N 43°20' E 007°16'3 7.0
2017-Oct-26 17:30N 43°24' E 007°17'4 7.2
2017-Oct-26 17:00N 43°27' E 007°17'4 7.3
2017-Oct-26 16:29N 43°31' E 007°18'4 7.3
2017-Oct-26 16:00N 43°35' E 007°18'4 7.4
2017-Oct-26 15:30N 43°38' E 007°18'3 2.0
2017-Oct-26 13:55N 43°41' E 007°19'0 0.0
2017-Oct-26 13:28N 43°41' E 007°19'0 0.0
2017-Oct-26 12:55N 43°41' E 007°19'  

Dump ship's entire track history